This is the latest recevied weather packets stored in our database for station/object AG1T-1. If no packets are shown the sender has not sent any weather packets the latest 10 day(s).
| Time | Temp. | Humidity | Pressure | Rain* | Wind** | Luminosity | Snow |
|---|---|---|---|---|---|---|---|
| 1777172403 | 10° C | 51% | 1008.6 hPa | 0 mm | - | 0 W/m² | - |
| 1777171803 | 10.56° C | 50% | 1008.5 hPa | 0 mm | - | 0 W/m² | - |
| 1777171203 | 11.11° C | 47% | 1008.5 hPa | 0 mm | - | 0 W/m² | - |
| 1777170603 | 11.67° C | 43% | 1008.5 hPa | 0 mm | - | 0 W/m² | - |
| 1777170003 | 12.22° C | 40% | 1008.5 hPa | 0 mm | - | 5 W/m² | - |
| 1777169403 | 12.22° C | 39% | 1008.6 hPa | 0 mm | - | 9 W/m² | - |
| 1777168803 | 12.78° C | 38% | 1008.5 hPa | 0 mm | - | 18 W/m² | - |
| 1777168203 | 13.33° C | 37% | 1008.6 hPa | 0 mm | - | 32 W/m² | - |
| 1777167603 | 13.33° C | 34% | 1008.7 hPa | 0 mm | - | 46 W/m² | - |
| 1777167003 | 13.89° C | 33% | 1008.8 hPa | 0 mm | - | 83 W/m² | - |
| 1777166403 | 14.44° C | 32% | 1008.9 hPa | 0 mm | - | 67 W/m² | - |
| 1777165803 | 15° C | 31% | 1009 hPa | 0 mm | - | 160 W/m² | - |
| 1777165203 | 15.56° C | 31% | 1009 hPa | 0 mm | - | 132 W/m² | - |
| 1777164603 | 16.11° C | 30% | 1009 hPa | 0 mm | - | 269 W/m² | - |
| 1777164003 | 15.56° C | 29% | 1009.2 hPa | 0 mm | - | 269 W/m² | - |
| 1777163403 | 16.67° C | 29% | 1009.2 hPa | 0 mm | - | 181 W/m² | - |
| 1777162803 | 15.56° C | 31% | 1009.3 hPa | 0 mm | - | 339 W/m² | - |
| 1777162203 | 15.56° C | 31% | 1009.5 hPa | 0 mm | - | 411 W/m² | - |
| 1777161603 | 15.56° C | 29% | 1009.5 hPa | 0 mm | - | 401 W/m² | - |
| 1777161003 | 15.56° C | 30% | 1009.7 hPa | 0 mm | - | 418 W/m² | - |
| 1777160403 | 15.56° C | 32% | 1009.7 hPa | 0 mm | - | 452 W/m² | - |
| 1777159803 | 15.56° C | 31% | 1009.9 hPa | 0 mm | - | 503 W/m² | - |
| 1777159203 | 15.56° C | 32% | 1010 hPa | 0 mm | - | 508 W/m² | - |
| 1777158603 | 15.56° C | 31% | 1010.1 hPa | 0 mm | - | 524 W/m² | - |
| 1777158003 | 15.56° C | 31% | 1010.2 hPa | 0 mm | - | 555 W/m² | - |
* Rain latest hour (hover to see other rain measurements)
** Current wind speed in m/s (hover to see current wind gust speed)